sensor_id;sensor_type;location;lat;lon;timestamp;temperature;humidity
54540;SHT30;40438;52.992;18.604;2023-04-01T00:00:19;20.32;70.58
54540;SHT30;40438;52.992;18.604;2023-04-01T00:02:47;20.31;70.55
54540;SHT30;40438;52.992;18.604;2023-04-01T00:05:13;20.32;70.56
54540;SHT30;40438;52.992;18.604;2023-04-01T00:07:39;20.32;70.50
54540;SHT30;40438;52.992;18.604;2023-04-01T00:10:10;20.33;70.58
54540;SHT30;40438;52.992;18.604;2023-04-01T00:12:36;20.32;70.62
54540;SHT30;40438;52.992;18.604;2023-04-01T00:15:03;20.29;70.72
54540;SHT30;40438;52.992;18.604;2023-04-01T00:17:29;20.32;70.61
54540;SHT30;40438;52.992;18.604;2023-04-01T00:19:56;20.29;70.70
54540;SHT30;40438;52.992;18.604;2023-04-01T00:22:21;20.29;70.74
54540;SHT30;40438;52.992;18.604;2023-04-01T00:24:47;20.26;70.72
54540;SHT30;40438;52.992;18.604;2023-04-01T00:27:15;20.28;70.75
54540;SHT30;40438;52.992;18.604;2023-04-01T00:29:41;20.22;70.96
54540;SHT30;40438;52.992;18.604;2023-04-01T00:32:07;20.26;70.81
54540;SHT30;40438;52.992;18.604;2023-04-01T00:34:33;20.28;70.79
54540;SHT30;40438;52.992;18.604;2023-04-01T00:36:59;20.26;70.81
54540;SHT30;40438;52.992;18.604;2023-04-01T00:39:25;20.26;70.88
54540;SHT30;40438;52.992;18.604;2023-04-01T00:41:51;20.26;70.68
54540;SHT30;40438;52.992;18.604;2023-04-01T00:44:19;20.26;70.73
54540;SHT30;40438;52.992;18.604;2023-04-01T00:46:46;20.26;70.79
54540;SHT30;40438;52.992;18.604;2023-04-01T00:49:12;20.24;70.73
54540;SHT30;40438;52.992;18.604;2023-04-01T00:51:39;20.25;70.54
54540;SHT30;40438;52.992;18.604;2023-04-01T00:54:05;20.25;70.84
54540;SHT30;40438;52.992;18.604;2023-04-01T00:56:33;20.24;70.81
54540;SHT30;40438;52.992;18.604;2023-04-01T00:59:02;20.25;70.71
54540;SHT30;40438;52.992;18.604;2023-04-01T01:01:31;20.21;70.98
54540;SHT30;40438;52.992;18.604;2023-04-01T01:03:57;20.20;71.04
54540;SHT30;40438;52.992;18.604;2023-04-01T01:06:30;20.22;70.99
54540;SHT30;40438;52.992;18.604;2023-04-01T01:09:25;20.24;70.72
54540;SHT30;40438;52.992;18.604;2023-04-01T01:11:52;20.22;70.82
54540;SHT30;40438;52.992;18.604;2023-04-01T01:14:28;20.22;70.84
54540;SHT30;40438;52.992;18.604;2023-04-01T01:17:00;20.22;70.90
54540;SHT30;40438;52.992;18.604;2023-04-01T01:19:48;20.21;70.84
54540;SHT30;40438;52.992;18.604;2023-04-01T01:22:22;20.21;70.88
54540;SHT30;40438;52.992;18.604;2023-04-01T01:25:06;20.17;70.90
54540;SHT30;40438;52.992;18.604;2023-04-01T01:27:41;20.21;71.04
54540;SHT30;40438;52.992;18.604;2023-04-01T01:30:28;20.22;70.82
54540;SHT30;40438;52.992;18.604;2023-04-01T01:33:24;20.20;70.81
54540;SHT30;40438;52.992;18.604;2023-04-01T01:35:56;20.18;70.83
54540;SHT30;40438;52.992;18.604;2023-04-01T01:38:27;20.22;70.92
54540;SHT30;40438;52.992;18.604;2023-04-01T01:41:04;20.17;70.83
54540;SHT30;40438;52.992;18.604;2023-04-01T01:43:35;20.18;70.85
54540;SHT30;40438;52.992;18.604;2023-04-01T01:46:06;20.20;70.93
54540;SHT30;40438;52.992;18.604;2023-04-01T01:48:34;20.18;70.90
54540;SHT30;40438;52.992;18.604;2023-04-01T01:51:03;20.21;70.76
54540;SHT30;40438;52.992;18.604;2023-04-01T01:53:30;20.17;70.83
54540;SHT30;40438;52.992;18.604;2023-04-01T01:55:56;20.18;70.83
54540;SHT30;40438;52.992;18.604;2023-04-01T01:58:24;20.21;70.94
54540;SHT30;40438;52.992;18.604;2023-04-01T02:00:54;20.12;71.01
54540;SHT30;40438;52.992;18.604;2023-04-01T02:03:22;20.15;70.89
54540;SHT30;40438;52.992;18.604;2023-04-01T02:05:53;20.15;70.88
54540;SHT30;40438;52.992;18.604;2023-04-01T02:08:25;20.11;70.91
54540;SHT30;40438;52.992;18.604;2023-04-01T02:10:58;20.14;70.83
54540;SHT30;40438;52.992;18.604;2023-04-01T02:13:33;20.14;70.96
54540;SHT30;40438;52.992;18.604;2023-04-01T02:16:05;20.15;70.87
54540;SHT30;40438;52.992;18.604;2023-04-01T02:18:32;20.17;70.89
54540;SHT30;40438;52.992;18.604;2023-04-01T02:20:59;20.11;70.93
54540;SHT30;40438;52.992;18.604;2023-04-01T02:23:27;20.12;70.84
54540;SHT30;40438;52.992;18.604;2023-04-01T02:25:54;20.14;70.68
54540;SHT30;40438;52.992;18.604;2023-04-01T02:28:20;20.10;70.93
54540;SHT30;40438;52.992;18.604;2023-04-01T02:30:49;20.10;71.03
54540;SHT30;40438;52.992;18.604;2023-04-01T02:33:15;20.12;70.91
54540;SHT30;40438;52.992;18.604;2023-04-01T02:35:42;20.10;70.84
54540;SHT30;40438;52.992;18.604;2023-04-01T02:38:08;20.11;70.91
54540;SHT30;40438;52.992;18.604;2023-04-01T02:40:43;20.12;70.84
54540;SHT30;40438;52.992;18.604;2023-04-01T02:43:10;20.11;70.86
54540;SHT30;40438;52.992;18.604;2023-04-01T02:45:36;20.07;70.79
54540;SHT30;40438;52.992;18.604;2023-04-01T02:48:02;20.10;70.77
54540;SHT30;40438;52.992;18.604;2023-04-01T02:50:28;20.10;70.78
54540;SHT30;40438;52.992;18.604;2023-04-01T02:52:53;20.10;70.65
54540;SHT30;40438;52.992;18.604;2023-04-01T02:55:19;20.12;70.69
54540;SHT30;40438;52.992;18.604;2023-04-01T02:57:47;20.08;70.75
54540;SHT30;40438;52.992;18.604;2023-04-01T03:00:14;20.10;70.75
54540;SHT30;40438;52.992;18.604;2023-04-01T03:02:40;20.11;70.61
54540;SHT30;40438;52.992;18.604;2023-04-01T03:05:06;20.11;70.61
54540;SHT30;40438;52.992;18.604;2023-04-01T03:07:32;20.10;70.58
54540;SHT30;40438;52.992;18.604;2023-04-01T03:09:58;20.10;70.77
54540;SHT30;40438;52.992;18.604;2023-04-01T03:12:24;20.08;70.69
54540;SHT30;40438;52.992;18.604;2023-04-01T03:14:52;20.11;70.50
54540;SHT30;40438;52.992;18.604;2023-04-01T03:17:18;20.10;70.53
54540;SHT30;40438;52.992;18.604;2023-04-01T03:19:45;20.07;70.52
54540;SHT30;40438;52.992;18.604;2023-04-01T03:22:11;20.08;70.44
54540;SHT30;40438;52.992;18.604;2023-04-01T03:24:37;20.08;70.43
54540;SHT30;40438;52.992;18.604;2023-04-01T03:27:02;20.05;70.62
54540;SHT30;40438;52.992;18.604;2023-04-01T03:29:29;20.04;70.43
54540;SHT30;40438;52.992;18.604;2023-04-01T03:31:56;20.05;70.55
54540;SHT30;40438;52.992;18.604;2023-04-01T03:34:22;20.07;70.29
54540;SHT30;40438;52.992;18.604;2023-04-01T03:36:48;20.05;70.48
54540;SHT30;40438;52.992;18.604;2023-04-01T03:39:14;20.05;70.31
54540;SHT30;40438;52.992;18.604;2023-04-01T03:41:41;20.07;70.31
54540;SHT30;40438;52.992;18.604;2023-04-01T03:44:06;20.07;70.28
54540;SHT30;40438;52.992;18.604;2023-04-01T03:46:32;20.07;70.21
54540;SHT30;40438;52.992;18.604;2023-04-01T03:48:59;20.04;70.33
54540;SHT30;40438;52.992;18.604;2023-04-01T03:51:25;20.04;70.30
54540;SHT30;40438;52.992;18.604;2023-04-01T03:53:51;20.05;70.34
54540;SHT30;40438;52.992;18.604;2023-04-01T03:56:17;20.05;70.30
54540;SHT30;40438;52.992;18.604;2023-04-01T03:58:43;20.01;70.35
54540;SHT30;40438;52.992;18.604;2023-04-01T04:01:17;20.04;70.20
54540;SHT30;40438;52.992;18.604;2023-04-01T04:03:45;20.00;70.31
54540;SHT30;40438;52.992;18.604;2023-04-01T04:06:13;19.97;70.33
54540;SHT30;40438;52.992;18.604;2023-04-01T04:08:39;19.98;70.26
54540;SHT30;40438;52.992;18.604;2023-04-01T04:11:05;19.94;70.17
54540;SHT30;40438;52.992;18.604;2023-04-01T04:13:31;19.87;70.47
54540;SHT30;40438;52.992;18.604;2023-04-01T04:16:00;19.96;70.13
54540;SHT30;40438;52.992;18.604;2023-04-01T04:18:27;19.96;70.10
54540;SHT30;40438;52.992;18.604;2023-04-01T04:20:52;19.90;70.10
54540;SHT30;40438;52.992;18.604;2023-04-01T04:23:20;19.88;70.18
54540;SHT30;40438;52.992;18.604;2023-04-01T04:25:54;19.90;69.97
54540;SHT30;40438;52.992;18.604;2023-04-01T04:28:20;19.91;69.66
54540;SHT30;40438;52.992;18.604;2023-04-01T04:30:46;19.90;69.50
54540;SHT30;40438;52.992;18.604;2023-04-01T04:33:12;19.87;69.57
54540;SHT30;40438;52.992;18.604;2023-04-01T04:35:38;19.90;69.48
54540;SHT30;40438;52.992;18.604;2023-04-01T04:38:03;19.84;69.56
54540;SHT30;40438;52.992;18.604;2023-04-01T04:40:31;19.84;69.52
54540;SHT30;40438;52.992;18.604;2023-04-01T04:42:56;19.85;69.38
54540;SHT30;40438;52.992;18.604;2023-04-01T04:45:23;19.85;69.18
54540;SHT30;40438;52.992;18.604;2023-04-01T04:47:54;19.87;69.24
54540;SHT30;40438;52.992;18.604;2023-04-01T04:50:20;19.90;68.94
54540;SHT30;40438;52.992;18.604;2023-04-01T04:52:46;19.84;69.10
54540;SHT30;40438;52.992;18.604;2023-04-01T04:55:12;19.81;68.86
54540;SHT30;40438;52.992;18.604;2023-04-01T04:57:40;19.81;68.89
54540;SHT30;40438;52.992;18.604;2023-04-01T05:00:07;19.78;68.68
54540;SHT30;40438;52.992;18.604;2023-04-01T05:02:59;19.77;68.77
54540;SHT30;40438;52.992;18.604;2023-04-01T05:05:24;20.00;68.03
54540;SHT30;40438;52.992;18.604;2023-04-01T05:07:50;20.24;67.56
54540;SHT30;40438;52.992;18.604;2023-04-01T05:10:16;20.41;66.99
54540;SHT30;40438;52.992;18.604;2023-04-01T05:12:44;20.53;66.88
54540;SHT30;40438;52.992;18.604;2023-04-01T05:15:14;20.68;66.26
54540;SHT30;40438;52.992;18.604;2023-04-01T05:17:40;20.73;66.03
54540;SHT30;40438;52.992;18.604;2023-04-01T05:20:08;20.82;65.72
54540;SHT30;40438;52.992;18.604;2023-04-01T05:22:34;20.84;65.51
54540;SHT30;40438;52.992;18.604;2023-04-01T05:25:00;20.87;65.42
54540;SHT30;40438;52.992;18.604;2023-04-01T05:27:27;20.89;65.65
54540;SHT30;40438;52.992;18.604;2023-04-01T05:29:55;20.91;65.39
54540;SHT30;40438;52.992;18.604;2023-04-01T05:32:44;20.93;65.31
54540;SHT30;40438;52.992;18.604;2023-04-01T05:35:10;20.94;65.45
54540;SHT30;40438;52.992;18.604;2023-04-01T05:37:36;20.93;65.41
54540;SHT30;40438;52.992;18.604;2023-04-01T05:40:04;20.94;65.51
54540;SHT30;40438;52.992;18.604;2023-04-01T05:42:30;20.93;65.48
54540;SHT30;40438;52.992;18.604;2023-04-01T05:44:58;20.87;65.39
54540;SHT30;40438;52.992;18.604;2023-04-01T05:47:42;20.91;65.21
54540;SHT30;40438;52.992;18.604;2023-04-01T05:50:08;20.93;64.91
54540;SHT30;40438;52.992;18.604;2023-04-01T05:52:34;20.94;64.99
54540;SHT30;40438;52.992;18.604;2023-04-01T05:55:00;20.93;65.01
54540;SHT30;40438;52.992;18.604;2023-04-01T05:57:26;20.93;64.63
54540;SHT30;40438;52.992;18.604;2023-04-01T05:59:51;20.94;64.40
54540;SHT30;40438;52.992;18.604;2023-04-01T06:02:19;20.96;64.36
54540;SHT30;40438;52.992;18.604;2023-04-01T06:04:45;20.97;64.71
54540;SHT30;40438;52.992;18.604;2023-04-01T06:07:11;20.97;64.43
54540;SHT30;40438;52.992;18.604;2023-04-01T06:09:37;20.97;63.83
54540;SHT30;40438;52.992;18.604;2023-04-01T06:12:37;21.01;63.97
54540;SHT30;40438;52.992;18.604;2023-04-01T06:15:15;21.00;63.68
54540;SHT30;40438;52.992;18.604;2023-04-01T06:17:56;21.06;63.63
54540;SHT30;40438;52.992;18.604;2023-04-01T06:20:30;21.07;63.66
54540;SHT30;40438;52.992;18.604;2023-04-01T06:23:24;21.07;63.70
54540;SHT30;40438;52.992;18.604;2023-04-01T06:26:11;21.10;63.71
54540;SHT30;40438;52.992;18.604;2023-04-01T06:28:49;21.10;63.47
54540;SHT30;40438;52.992;18.604;2023-04-01T06:31:35;21.08;63.54
54540;SHT30;40438;52.992;18.604;2023-04-01T06:37:10;21.13;63.14
54540;SHT30;40438;52.992;18.604;2023-04-01T06:40:01;21.13;63.36
54540;SHT30;40438;52.992;18.604;2023-04-01T06:42:40;21.13;63.50
54540;SHT30;40438;52.992;18.604;2023-04-01T06:45:37;21.13;63.22
54540;SHT30;40438;52.992;18.604;2023-04-01T06:48:42;21.13;63.06
54540;SHT30;40438;52.992;18.604;2023-04-01T06:51:38;21.14;63.30
54540;SHT30;40438;52.992;18.604;2023-04-01T06:54:28;21.15;63.01
54540;SHT30;40438;52.992;18.604;2023-04-01T06:57:12;21.14;62.79
54540;SHT30;40438;52.992;18.604;2023-04-01T06:59:42;21.15;62.79
54540;SHT30;40438;52.992;18.604;2023-04-01T07:02:19;21.17;62.83
54540;SHT30;40438;52.992;18.604;2023-04-01T07:04:49;21.21;62.40
54540;SHT30;40438;52.992;18.604;2023-04-01T07:07:23;21.24;62.61
54540;SHT30;40438;52.992;18.604;2023-04-01T07:09:59;21.28;62.72
54540;SHT30;40438;52.992;18.604;2023-04-01T07:12:38;21.31;62.63
54540;SHT30;40438;52.992;18.604;2023-04-01T07:15:27;21.32;62.76
54540;SHT30;40438;52.992;18.604;2023-04-01T07:17:56;21.34;62.96
54540;SHT30;40438;52.992;18.604;2023-04-01T07:20:27;21.37;62.62
54540;SHT30;40438;52.992;18.604;2023-04-01T07:22:58;21.38;62.69
54540;SHT30;40438;52.992;18.604;2023-04-01T07:25:31;21.38;62.84
54540;SHT30;40438;52.992;18.604;2023-04-01T07:28:22;21.32;63.16
54540;SHT30;40438;52.992;18.604;2023-04-01T07:31:05;21.35;62.75
54540;SHT30;40438;52.992;18.604;2023-04-01T07:33:37;21.34;63.17
54540;SHT30;40438;52.992;18.604;2023-04-01T07:36:10;21.34;62.79
54540;SHT30;40438;52.992;18.604;2023-04-01T07:38:49;20.83;55.02
54540;SHT30;40438;52.992;18.604;2023-04-01T07:41:45;20.86;61.75
54540;SHT30;40438;52.992;18.604;2023-04-01T07:44:16;21.01;61.78
54540;SHT30;40438;52.992;18.604;2023-04-01T07:46:59;21.10;61.76
54540;SHT30;40438;52.992;18.604;2023-04-01T07:49:33;21.20;61.57
54540;SHT30;40438;52.992;18.604;2023-04-01T07:52:07;21.24;61.76
54540;SHT30;40438;52.992;18.604;2023-04-01T07:54:45;21.95;59.87
54540;SHT30;40438;52.992;18.604;2023-04-01T07:57:19;22.13;59.20
54540;SHT30;40438;52.992;18.604;2023-04-01T07:59:57;22.14;59.01
54540;SHT30;40438;52.992;18.604;2023-04-01T08:05:07;22.24;58.70
54540;SHT30;40438;52.992;18.604;2023-04-01T08:07:44;22.31;58.27
54540;SHT30;40438;52.992;18.604;2023-04-01T08:10:38;22.26;58.28
54540;SHT30;40438;52.992;18.604;2023-04-01T08:13:31;22.36;57.90
54540;SHT30;40438;52.992;18.604;2023-04-01T08:16:44;22.36;57.75
54540;SHT30;40438;52.992;18.604;2023-04-01T08:19:25;22.43;57.71
54540;SHT30;40438;52.992;18.604;2023-04-01T08:21:58;22.47;57.42
54540;SHT30;40438;52.992;18.604;2023-04-01T08:24:34;22.40;57.47
54540;SHT30;40438;52.992;18.604;2023-04-01T08:27:06;22.34;57.51
54540;SHT30;40438;52.992;18.604;2023-04-01T08:29:38;22.53;57.39
54540;SHT30;40438;52.992;18.604;2023-04-01T08:32:10;21.71;53.74
54540;SHT30;40438;52.992;18.604;2023-04-01T08:34:40;22.17;54.75
54540;SHT30;40438;52.992;18.604;2023-04-01T08:37:19;22.37;55.68
54540;SHT30;40438;52.992;18.604;2023-04-01T08:39:51;22.43;56.11
54540;SHT30;40438;52.992;18.604;2023-04-01T08:42:50;22.48;55.90
54540;SHT30;40438;52.992;18.604;2023-04-01T08:45:29;22.56;55.83
54540;SHT30;40438;52.992;18.604;2023-04-01T08:48:36;22.57;56.03
54540;SHT30;40438;52.992;18.604;2023-04-01T08:54:45;22.65;55.82
54540;SHT30;40438;52.992;18.604;2023-04-01T08:57:21;22.69;55.87
54540;SHT30;40438;52.992;18.604;2023-04-01T09:00:15;22.69;59.97
54540;SHT30;40438;52.992;18.604;2023-04-01T09:03:19;22.78;58.56
54540;SHT30;40438;52.992;18.604;2023-04-01T09:08:53;22.87;58.27
54540;SHT30;40438;52.992;18.604;2023-04-01T09:11:33;22.88;58.21
54540;SHT30;40438;52.992;18.604;2023-04-01T09:14:33;22.91;59.37
54540;SHT30;40438;52.992;18.604;2023-04-01T09:20:46;22.94;59.39
54540;SHT30;40438;52.992;18.604;2023-04-01T09:26:44;22.92;59.62
54540;SHT30;40438;52.992;18.604;2023-04-01T09:29:30;22.78;59.80
54540;SHT30;40438;52.992;18.604;2023-04-01T09:32:15;22.71;60.34
54540;SHT30;40438;52.992;18.604;2023-04-01T09:35:05;22.61;59.98
54540;SHT30;40438;52.992;18.604;2023-04-01T09:37:48;22.63;59.76
54540;SHT30;40438;52.992;18.604;2023-04-01T09:40:31;22.53;59.97
54540;SHT30;40438;52.992;18.604;2023-04-01T09:43:25;22.50;59.65
54540;SHT30;40438;52.992;18.604;2023-04-01T09:46:09;22.51;59.51
54540;SHT30;40438;52.992;18.604;2023-04-01T09:51:44;22.57;59.06
54540;SHT30;40438;52.992;18.604;2023-04-01T09:54:27;22.36;60.80
54540;SHT30;40438;52.992;18.604;2023-04-01T10:00:32;20.41;53.17
54540;SHT30;40438;52.992;18.604;2023-04-01T10:03:37;20.91;56.41
54540;SHT30;40438;52.992;18.604;2023-04-01T10:06:40;21.15;57.27
54540;SHT30;40438;52.992;18.604;2023-04-01T10:12:44;21.30;57.35
54540;SHT30;40438;52.992;18.604;2023-04-01T10:15:37;21.32;57.27
54540;SHT30;40438;52.992;18.604;2023-04-01T10:27:57;21.38;58.05
54540;SHT30;40438;52.992;18.604;2023-04-01T10:33:53;21.48;59.72
54540;SHT30;40438;52.992;18.604;2023-04-01T10:36:46;21.51;59.79
54540;SHT30;40438;52.992;18.604;2023-04-01T10:39:52;21.48;59.73
54540;SHT30;40438;52.992;18.604;2023-04-01T10:43:08;21.52;59.74
54540;SHT30;40438;52.992;18.604;2023-04-01T10:46:10;21.49;59.91
54540;SHT30;40438;52.992;18.604;2023-04-01T10:52:23;21.51;60.04
54540;SHT30;40438;52.992;18.604;2023-04-01T10:55:50;21.52;59.97
54540;SHT30;40438;52.992;18.604;2023-04-01T11:02:53;21.51;60.23
54540;SHT30;40438;52.992;18.604;2023-04-01T11:06:08;21.51;60.29
54540;SHT30;40438;52.992;18.604;2023-04-01T11:15:27;21.52;60.63
54540;SHT30;40438;52.992;18.604;2023-04-01T11:21:33;21.42;60.22
54540;SHT30;40438;52.992;18.604;2023-04-01T11:24:15;21.44;59.94
54540;SHT30;40438;52.992;18.604;2023-04-01T11:27:05;21.38;60.30
54540;SHT30;40438;52.992;18.604;2023-04-01T11:29:56;21.38;60.50
54540;SHT30;40438;52.992;18.604;2023-04-01T11:32:38;21.37;60.54
54540;SHT30;40438;52.992;18.604;2023-04-01T11:35:40;21.40;60.24
54540;SHT30;40438;52.992;18.604;2023-04-01T11:38:31;21.35;59.91
54540;SHT30;40438;52.992;18.604;2023-04-01T11:41:40;21.28;59.97
54540;SHT30;40438;52.992;18.604;2023-04-01T11:44:51;21.24;60.27
54540;SHT30;40438;52.992;18.604;2023-04-01T11:47:48;21.24;60.28
54540;SHT30;40438;52.992;18.604;2023-04-01T11:50:24;21.18;59.87
54540;SHT30;40438;52.992;18.604;2023-04-01T11:53:08;21.18;59.92
54540;SHT30;40438;52.992;18.604;2023-04-01T11:55:47;21.13;59.72
54540;SHT30;40438;52.992;18.604;2023-04-01T12:01:28;21.15;59.89
54540;SHT30;40438;52.992;18.604;2023-04-01T12:07:16;21.11;60.09
54540;SHT30;40438;52.992;18.604;2023-04-01T12:09:49;21.14;60.27
54540;SHT30;40438;52.992;18.604;2023-04-01T12:12:23;21.14;60.17
54540;SHT30;40438;52.992;18.604;2023-04-01T12:15:02;21.13;60.39
54540;SHT30;40438;52.992;18.604;2023-04-01T12:17:37;21.13;59.79
54540;SHT30;40438;52.992;18.604;2023-04-01T12:20:23;21.03;59.24
54540;SHT30;40438;52.992;18.604;2023-04-01T12:23:02;21.01;59.56
54540;SHT30;40438;52.992;18.604;2023-04-01T12:25:45;21.04;60.72
54540;SHT30;40438;52.992;18.604;2023-04-01T12:28:21;21.03;60.52
54540;SHT30;40438;52.992;18.604;2023-04-01T12:31:02;20.99;60.49
54540;SHT30;40438;52.992;18.604;2023-04-01T12:33:53;20.99;60.82
54540;SHT30;40438;52.992;18.604;2023-04-01T12:39:28;20.94;60.68
54540;SHT30;40438;52.992;18.604;2023-04-01T12:42:06;20.90;60.58
54540;SHT30;40438;52.992;18.604;2023-04-01T12:44:52;20.90;60.52
54540;SHT30;40438;52.992;18.604;2023-04-01T12:50:26;20.89;60.78
54540;SHT30;40438;52.992;18.604;2023-04-01T12:53:22;20.84;60.62
54540;SHT30;40438;52.992;18.604;2023-04-01T12:55:54;20.86;60.79
54540;SHT30;40438;52.992;18.604;2023-04-01T12:58:57;20.83;60.77
54540;SHT30;40438;52.992;18.604;2023-04-01T13:04:33;20.80;60.20
54540;SHT30;40438;52.992;18.604;2023-04-01T13:07:19;20.83;60.21
54540;SHT30;40438;52.992;18.604;2023-04-01T13:09:57;20.79;60.15
54540;SHT30;40438;52.992;18.604;2023-04-01T13:12:53;20.73;60.24
54540;SHT30;40438;52.992;18.604;2023-04-01T13:15:27;20.73;60.26
54540;SHT30;40438;52.992;18.604;2023-04-01T13:18:02;20.73;60.14
54540;SHT30;40438;52.992;18.604;2023-04-01T13:20:43;20.75;60.60
54540;SHT30;40438;52.992;18.604;2023-04-01T13:23:24;20.73;60.45
54540;SHT30;40438;52.992;18.604;2023-04-01T13:26:03;20.76;61.30
54540;SHT30;40438;52.992;18.604;2023-04-01T13:28:35;20.76;60.87
54540;SHT30;40438;52.992;18.604;2023-04-01T13:31:09;20.75;60.92
54540;SHT30;40438;52.992;18.604;2023-04-01T13:33:44;20.77;61.03
54540;SHT30;40438;52.992;18.604;2023-04-01T13:36:19;20.73;60.50
54540;SHT30;40438;52.992;18.604;2023-04-01T13:39:02;20.72;60.92
54540;SHT30;40438;52.992;18.604;2023-04-01T13:41:53;20.73;60.81
54540;SHT30;40438;52.992;18.604;2023-04-01T13:44:27;20.73;60.79
54540;SHT30;40438;52.992;18.604;2023-04-01T13:50:04;20.83;60.64
54540;SHT30;40438;52.992;18.604;2023-04-01T13:52:56;20.86;60.23
54540;SHT30;40438;52.992;18.604;2023-04-01T13:55:54;20.83;60.08
54540;SHT30;40438;52.992;18.604;2023-04-01T13:58:28;20.86;59.87
54540;SHT30;40438;52.992;18.604;2023-04-01T14:01:08;20.83;59.68
54540;SHT30;40438;52.992;18.604;2023-04-01T14:04:08;20.84;59.50
54540;SHT30;40438;52.992;18.604;2023-04-01T14:06:49;20.80;59.28
54540;SHT30;40438;52.992;18.604;2023-04-01T14:09:32;20.82;59.48
54540;SHT30;40438;52.992;18.604;2023-04-01T14:12:07;20.76;59.64
54540;SHT30;40438;52.992;18.604;2023-04-01T14:14:47;20.79;59.32
54540;SHT30;40438;52.992;18.604;2023-04-01T14:17:40;20.75;59.28
54540;SHT30;40438;52.992;18.604;2023-04-01T14:20:25;20.73;59.57
54540;SHT30;40438;52.992;18.604;2023-04-01T14:23:09;20.75;59.36
54540;SHT30;40438;52.992;18.604;2023-04-01T14:26:07;20.70;59.23
54540;SHT30;40438;52.992;18.604;2023-04-01T14:28:43;20.69;58.90
54540;SHT30;40438;52.992;18.604;2023-04-01T14:31:30;20.66;59.06
54540;SHT30;40438;52.992;18.604;2023-04-01T14:34:06;20.62;58.26
54540;SHT30;40438;52.992;18.604;2023-04-01T14:36:55;20.60;58.20
54540;SHT30;40438;52.992;18.604;2023-04-01T14:39:38;20.57;58.50
54540;SHT30;40438;52.992;18.604;2023-04-01T14:42:31;20.57;58.03
54540;SHT30;40438;52.992;18.604;2023-04-01T14:45:26;20.55;58.30
54540;SHT30;40438;52.992;18.604;2023-04-01T14:47:58;20.55;58.29
54540;SHT30;40438;52.992;18.604;2023-04-01T14:50:27;20.53;59.10
54540;SHT30;40438;52.992;18.604;2023-04-01T14:52:59;20.51;59.47
54540;SHT30;40438;52.992;18.604;2023-04-01T14:55:48;20.53;60.42
54540;SHT30;40438;52.992;18.604;2023-04-01T14:58:17;20.53;60.85
54540;SHT30;40438;52.992;18.604;2023-04-01T15:00:55;20.52;61.08
54540;SHT30;40438;52.992;18.604;2023-04-01T15:03:29;20.52;61.73
54540;SHT30;40438;52.992;18.604;2023-04-01T15:05:56;20.46;61.90
54540;SHT30;40438;52.992;18.604;2023-04-01T15:08:28;20.43;61.54
54540;SHT30;40438;52.992;18.604;2023-04-01T15:11:23;20.46;61.35
54540;SHT30;40438;52.992;18.604;2023-04-01T15:16:51;20.52;62.23
54540;SHT30;40438;52.992;18.604;2023-04-01T15:19:31;20.52;62.20
54540;SHT30;40438;52.992;18.604;2023-04-01T15:22:15;20.53;61.95
54540;SHT30;40438;52.992;18.604;2023-04-01T15:24:51;20.53;62.17
54540;SHT30;40438;52.992;18.604;2023-04-01T15:27:32;20.56;61.54
54540;SHT30;40438;52.992;18.604;2023-04-01T15:30:18;20.56;62.37
54540;SHT30;40438;52.992;18.604;2023-04-01T15:32:57;20.56;63.41
54540;SHT30;40438;52.992;18.604;2023-04-01T15:35:39;20.59;62.78
54540;SHT30;40438;52.992;18.604;2023-04-01T15:38:11;20.62;62.46
54540;SHT30;40438;52.992;18.604;2023-04-01T15:40:45;20.59;62.78
54540;SHT30;40438;52.992;18.604;2023-04-01T15:43:15;20.60;62.50
54540;SHT30;40438;52.992;18.604;2023-04-01T15:45:51;20.57;61.69
54540;SHT30;40438;52.992;18.604;2023-04-01T15:48:31;20.59;61.24
54540;SHT30;40438;52.992;18.604;2023-04-01T15:51:10;20.57;61.41
54540;SHT30;40438;52.992;18.604;2023-04-01T15:53:46;20.57;61.01
54540;SHT30;40438;52.992;18.604;2023-04-01T15:56:26;20.56;61.97
54540;SHT30;40438;52.992;18.604;2023-04-01T15:59:01;20.55;62.28
54540;SHT30;40438;52.992;18.604;2023-04-01T16:01:38;20.53;61.65
54540;SHT30;40438;52.992;18.604;2023-04-01T16:04:26;20.51;60.85
54540;SHT30;40438;52.992;18.604;2023-04-01T16:07:03;20.43;61.93
54540;SHT30;40438;52.992;18.604;2023-04-01T16:09:50;20.41;61.79
54540;SHT30;40438;52.992;18.604;2023-04-01T16:12:30;20.43;61.49
54540;SHT30;40438;52.992;18.604;2023-04-01T16:15:09;20.39;61.84
54540;SHT30;40438;52.992;18.604;2023-04-01T16:17:59;20.33;61.31
54540;SHT30;40438;52.992;18.604;2023-04-01T16:20:42;20.32;60.90
54540;SHT30;40438;52.992;18.604;2023-04-01T16:23:15;20.38;60.86
54540;SHT30;40438;52.992;18.604;2023-04-01T16:25:46;20.42;62.05
54540;SHT30;40438;52.992;18.604;2023-04-01T16:28:22;20.45;62.39
54540;SHT30;40438;52.992;18.604;2023-04-01T16:30:56;20.48;62.03
54540;SHT30;40438;52.992;18.604;2023-04-01T16:33:27;20.49;62.03
54540;SHT30;40438;52.992;18.604;2023-04-01T16:35:59;20.52;61.75
54540;SHT30;40438;52.992;18.604;2023-04-01T16:38:36;20.51;62.14
54540;SHT30;40438;52.992;18.604;2023-04-01T16:41:16;20.51;62.47
54540;SHT30;40438;52.992;18.604;2023-04-01T16:43:45;20.56;62.54
54540;SHT30;40438;52.992;18.604;2023-04-01T16:46:21;20.56;62.14
54540;SHT30;40438;52.992;18.604;2023-04-01T16:48:59;20.55;62.39
54540;SHT30;40438;52.992;18.604;2023-04-01T16:51:26;20.59;62.11
54540;SHT30;40438;52.992;18.604;2023-04-01T16:54:05;20.57;62.16
54540;SHT30;40438;52.992;18.604;2023-04-01T16:56:39;20.57;61.98
54540;SHT30;40438;52.992;18.604;2023-04-01T16:59:13;20.52;61.88
54540;SHT30;40438;52.992;18.604;2023-04-01T17:01:43;20.52;62.17
54540;SHT30;40438;52.992;18.604;2023-04-01T17:04:18;20.49;62.80
54540;SHT30;40438;52.992;18.604;2023-04-01T17:06:50;20.49;63.27
54540;SHT30;40438;52.992;18.604;2023-04-01T17:09:28;20.43;62.63
54540;SHT30;40438;52.992;18.604;2023-04-01T17:12:02;20.46;62.78
54540;SHT30;40438;52.992;18.604;2023-04-01T17:14:39;20.42;63.26
54540;SHT30;40438;52.992;18.604;2023-04-01T17:17:24;20.43;63.71
54540;SHT30;40438;52.992;18.604;2023-04-01T17:22:45;20.35;63.83
54540;SHT30;40438;52.992;18.604;2023-04-01T17:25:25;20.33;63.19
54540;SHT30;40438;52.992;18.604;2023-04-01T17:27:55;20.29;63.60
54540;SHT30;40438;52.992;18.604;2023-04-01T17:30:31;20.25;63.37
54540;SHT30;40438;52.992;18.604;2023-04-01T17:35:56;20.22;63.82
54540;SHT30;40438;52.992;18.604;2023-04-01T17:38:44;20.22;64.50